»·PEaware :: N969DA KSNA-KSBD

N969DA :: KSNA-KSBD

FLIGHT INFORMATION

Flight Status: Arrived
Operator: Privately registered:
United States
More flights under this callsign
Pilot: Anonymous 20880 (20880)
Aircraft: Unknown
(DA62)
More flights by this aircraft type
Origin: KSNA John Wayne-Orange Co
United States
Destination: KSBD San Bernardino Intl
United States
More flights between these airports :: More routes between these airports
Route: SLI V8 PDZ
File this flight plan on PilotEdge
Remarks: CSTP13
Altitude:
(Current/Filed)
5,000ft
Speed:
(Current/Filed)
140kts
Departed: 26-Dec-18 09:11 PM
Arrived: 26-Dec-18 09:37 PM
Distance/Time
Traveled:
40nm/0:26
Distance/Time
To Go:
Arrived

Flight Plot

Page will automatically refresh every two minutes.


Map Options




Map Legend


Flown Route
Filed Route
Departure Airport
Arrival Airport
Navaid (VOR, NDB)
Fix

Horizontal Profiles

Position Reports

Time Latitude Longitude Heading Altitude Ground
Speed
26-Dec-18 20:49 33.675206 -117.871412 128 60ft 0kts
26-Dec-18 20:50 33.675206 -117.871412 128 60ft 0kts
26-Dec-18 20:51 33.675206 -117.871412 128 60ft 0kts
26-Dec-18 20:52 33.675206 -117.871412 128 60ft 0kts
26-Dec-18 20:53 33.675206 -117.871412 128 60ft 0kts
26-Dec-18 20:54 33.675206 -117.871412 128 60ft 0kts
26-Dec-18 20:55 33.675206 -117.871412 128 60ft 0kts
26-Dec-18 20:56 33.675206 -117.871412 128 60ft 0kts
26-Dec-18 20:57 33.675206 -117.871412 128 60ft 0kts
26-Dec-18 20:58 33.675206 -117.871412 128 60ft 0kts
26-Dec-18 20:59 33.675206 -117.871412 128 60ft 0kts
26-Dec-18 21:00 33.675206 -117.871412 128 60ft 0kts
26-Dec-18 21:01 33.675206 -117.871412 128 60ft 0kts
26-Dec-18 21:02 33.675206 -117.871412 128 60ft 0kts
26-Dec-18 21:03 33.675206 -117.871412 128 60ft 0kts
26-Dec-18 21:04 33.675206 -117.871412 128 60ft 0kts
26-Dec-18 21:05 33.675089 -117.871239 129 60ft 7kts
26-Dec-18 21:06 33.679899 -117.867851 23 60ft 24kts
26-Dec-18 21:07 33.681246 -117.866523 113 60ft 0kts
26-Dec-18 21:08 33.681246 -117.866524 113 60ft 0kts
26-Dec-18 21:09 33.680104 -117.866046 206 60ft 38kts
26-Dec-18 21:10 33.661907 -117.885394 230 903ft 113kts
26-Dec-18 21:11 33.640607 -117.918416 231 1923ft 131kts
26-Dec-18 21:12 33.618133 -117.959517 275 2082ft 157kts
26-Dec-18 21:13 33.631054 -118.004593 291 3051ft 136kts
26-Dec-18 21:14 33.643694 -118.046626 291 4038ft 134kts
26-Dec-18 21:15 33.658534 -118.087034 331 4965ft 135kts
26-Dec-18 21:16 33.699527 -118.092123 1 5002ft 158kts
26-Dec-18 21:17 33.741853 -118.084110 29 5000ft 156kts
26-Dec-18 21:18 33.780225 -118.059567 34 4997ft 156kts
26-Dec-18 21:19 33.794639 -118.011821 71 5001ft 154kts
26-Dec-18 21:20 33.807340 -117.962409 69 5002ft 156kts
26-Dec-18 21:21 33.820362 -117.912089 69 5002ft 158kts
26-Dec-18 21:22 33.833508 -117.861192 69 5003ft 160kts
26-Dec-18 21:23 33.846812 -117.809565 69 4995ft 163kts
26-Dec-18 21:24 33.860296 -117.757156 69 4975ft 165kts
26-Dec-18 21:25 33.873988 -117.703842 69 4954ft 168kts
26-Dec-18 21:26 33.887913 -117.649507 70 4919ft 171kts
26-Dec-18 21:27 33.902039 -117.594272 70 4901ft 174kts
26-Dec-18 21:28 33.924494 -117.544244 51 4917ft 170kts
26-Dec-18 21:29 33.951294 -117.498064 51 4939ft 167kts
26-Dec-18 21:30 33.977550 -117.452598 51 4956ft 164kts
26-Dec-18 21:31 34.003237 -117.408341 51 4963ft 153kts
26-Dec-18 21:32 34.026161 -117.368897 51 4970ft 136kts
26-Dec-18 21:33 34.047238 -117.332872 51 4484ft 127kts
26-Dec-18 21:34 34.072016 -117.300450 44 3497ft 141kts
26-Dec-18 21:35 34.088158 -117.258383 68 1348ft 106kts
26-Dec-18 21:36 34.094664 -117.240609 34 1102ft 0kts
26-Dec-18 21:37 34.094664 -117.240609 34 1102ft 0kts
26-Dec-18 21:38 34.098677 -117.237992 328 1110ft 16kts
26-Dec-18 21:39 34.102008 -117.243417 270 1100ft 22kts
26-Dec-18 21:40 34.099798 -117.245943 281 1094ft 5kts
26-Dec-18 21:41 34.099704 -117.245926 110 1094ft 0kts

Navigation Log

Ident Type
Flight plan parsing failed, navigation log unavailable